Time;durP1;ratioP1;P1;durP2;ratioP2;P2;SDS_P1;SDS_P2;PMS_P1;PMS_P2;Temp;Humidity;BMP_temperature;BMP_pressure;BME280_temperature;BME280_humidity;BME280_pressure;Samples;Min_cycle;Max_cycle;Signal;HPM_P1;HPM_P2
2021/06/02 00:01:59;;;;;;;13.57;10.90;;;;;;;10.60;68.69;99265.48;125152;1096;64354;-85
2021/06/02 00:04:33;;;;;;;15.17;10.87;;;;;;;10.62;68.36;99266.25;125003;1096;64355;-86
2021/06/02 00:07:06;;;;;;;12.33;9.83;;;;;;;10.61;68.19;99257.41;125216;1101;64351;-86
2021/06/02 00:09:34;;;;;;;12.73;9.80;;;;;;;10.58;67.99;99262.05;125179;1101;64308;-87
2021/06/02 00:12:11;;;;;;;12.03;9.30;;;;;;;10.51;68.06;99259.78;125073;1101;64423;-87
2021/06/02 00:14:40;;;;;;;12.50;10.45;;;;;;;10.46;68.04;99267.20;125143;1096;64342;-87
2021/06/02 00:17:08;;;;;;;12.90;9.75;;;;;;;10.41;67.98;99266.63;125180;1096;64326;-86
2021/06/02 00:19:36;;;;;;;11.57;9.70;;;;;;;10.40;67.90;99259.61;125157;1101;64349;-87
2021/06/02 00:22:06;;;;;;;15.97;10.60;;;;;;;10.38;68.03;99260.66;124941;1096;64399;-86
2021/06/02 00:24:34;;;;;;;14.65;10.15;;;;;;;10.36;67.89;99260.73;125220;1096;64355;-86
2021/06/02 00:27:05;;;;;;;14.57;11.47;;;;;;;10.30;67.88;99261.97;125115;1096;64306;-86
2021/06/02 00:29:35;;;;;;;14.87;10.20;;;;;;;10.26;67.90;99264.88;125024;1101;64303;-87
2021/06/02 00:32:04;;;;;;;16.87;11.43;;;;;;;10.19;68.09;99263.53;125175;1101;64339;-86
2021/06/02 00:34:32;;;;;;;14.30;10.70;;;;;;;10.11;67.83;99266.69;125104;1101;64364;-85
2021/06/02 00:37:01;;;;;;;14.37;9.70;;;;;;;10.04;68.05;99273.33;125125;1101;64338;-86
2021/06/02 00:39:29;;;;;;;13.33;10.20;;;;;;;9.98;67.93;99271.89;124842;1096;64281;-88
2021/06/02 00:41:58;;;;;;;15.30;10.30;;;;;;;9.94;68.09;99278.34;124719;1101;64461;-87
2021/06/02 00:44:26;;;;;;;12.47;10.47;;;;;;;9.87;68.14;99274.31;125079;1101;64432;-88
2021/06/02 00:46:57;;;;;;;14.20;10.40;;;;;;;9.84;68.33;99275.36;125025;1101;64416;-86
2021/06/02 00:49:26;;;;;;;14.00;10.87;;;;;;;9.81;68.37;99291.52;125011;1096;64664;-88
2021/06/02 00:51:56;;;;;;;15.50;11.43;;;;;;;9.82;68.55;99290.59;125047;1101;64335;-87
2021/06/02 00:54:24;;;;;;;;;;;;;;;9.83;68.64;99294.95;125145;1101;64303;-88
2021/06/02 00:57:00;;;;;;;15.10;12.13;;;;;;;9.82;68.39;99281.72;125108;1101;64457;-87
2021/06/02 00:59:32;;;;;;;16.23;11.57;;;;;;;9.80;68.55;99278.31;125148;1096;64361;-87
2021/06/02 01:02:01;;;;;;;17.07;12.13;;;;;;;9.76;68.50;99284.75;125119;1095;64329;-87
2021/06/02 01:04:30;;;;;;;13.80;11.03;;;;;;;9.66;68.52;99281.77;124962;1096;64338;-87
2021/06/02 01:06:57;;;;;;;17.47;11.67;;;;;;;9.55;68.74;99282.39;125021;1096;64358;-87
2021/06/02 01:09:25;;;;;;;17.27;12.27;;;;;;;9.44;68.88;99282.16;125154;1101;64326;-86
2021/06/02 01:11:54;;;;;;;14.90;10.60;;;;;;;9.35;69.36;99290.69;125037;1096;64342;-86
2021/06/02 01:14:22;;;;;;;14.00;10.93;;;;;;;9.28;69.37;99281.34;124682;1101;64475;-86
2021/06/02 01:16:50;;;;;;;14.70;10.63;;;;;;;9.21;69.72;99286.98;125012;1101;64335;-87
2021/06/02 01:19:23;;;;;;;16.63;11.00;;;;;;;9.20;69.69;99287.09;124729;1101;64354;-87
2021/06/02 01:22:00;;;;;;;13.53;11.43;;;;;;;9.18;69.83;99289.82;124998;1096;64476;-87
2021/06/02 01:24:30;;;;;;;13.53;11.03;;;;;;;9.17;69.93;99287.27;125142;1096;64461;-87
2021/06/02 01:27:00;;;;;;;14.93;11.03;;;;;;;9.13;69.89;99291.88;125062;1096;64419;-87
2021/06/02 01:29:29;;;;;;;13.13;10.47;;;;;;;9.08;69.89;99287.77;125120;1101;64266;-87
2021/06/02 01:32:18;;;;;;;14.20;11.35;;;;;;;8.99;69.95;99294.47;125197;1101;64330;-86
2021/06/02 01:35:07;;;;;;;12.53;11.13;;;;;;;8.92;70.24;99299.25;125163;1096;64259;-87
2021/06/02 01:38:24;;;;;;;11.40;10.17;;;;;;;8.83;70.19;99297.11;125122;1101;64492;-86
2021/06/02 01:40:54;;;;;;;11.23;9.70;;;;;;;8.71;70.45;99293.31;125078;1096;64331;-86
2021/06/02 01:43:50;;;;;;;15.20;10.13;;;;;;;8.67;70.33;99293.59;125066;1101;64355;-85
2021/06/02 01:46:55;;;;;;;14.63;10.13;;;;;;;8.61;70.54;99301.87;125028;1101;64251;-87
2021/06/02 01:49:31;;;;;;;12.20;9.37;;;;;;;8.55;70.55;99290.63;125088;1101;64374;-87
2021/06/02 01:52:23;;;;;;;12.87;10.50;;;;;;;8.54;70.76;99296.89;125119;1101;64486;-88
2021/06/02 01:55:18;;;;;;;14.10;10.60;;;;;;;8.53;70.70;99296.96;125133;1097;64701;-88
2021/06/02 01:58:29;;;;;;;13.37;11.20;;;;;;;8.52;70.96;99303.23;125101;1096;64207;-87
2021/06/02 02:01:13;;;;;;;15.17;11.03;;;;;;;8.46;71.08;99300.91;125146;1101;64358;-87
2021/06/02 02:03:55;;;;;;;15.70;12.40;;;;;;;8.39;71.16;99303.02;125081;1101;64751;-86
2021/06/02 02:06:54;;;;;;;13.23;10.70;;;;;;;8.34;71.30;99305.88;125041;1101;64464;-86
2021/06/02 02:09:34;;;;;;;17.70;12.87;;;;;;;8.29;71.36;99313.26;125093;1096;64388;-87
2021/06/02 02:12:24;;;;;;;17.77;13.03;;;;;;;8.27;71.40;99311.63;125074;1101;64399;-86
2021/06/02 02:14:52;;;;;;;21.10;17.50;;;;;;;8.27;71.47;99315.13;125022;1096;64453;-85
2021/06/02 02:17:29;;;;;;;19.20;16.60;;;;;;;8.27;71.72;99307.16;125125;1101;64406;-86
2021/06/02 02:20:17;;;;;;;17.00;15.25;;;;;;;8.27;71.73;99304.51;125104;1101;64474;-86
2021/06/02 02:22:59;;;;;;;17.77;16.03;;;;;;;8.24;72.00;99309.98;124997;1096;64334;-86
2021/06/02 02:25:53;;;;;;;20.23;16.67;;;;;;;8.22;71.66;99316.31;125106;1101;64349;-86
2021/06/02 02:28:24;;;;;;;17.07;14.33;;;;;;;8.17;71.67;99315.69;125050;1101;64204;-86
2021/06/02 02:31:05;;;;;;;15.43;13.77;;;;;;;8.12;71.83;99316.77;125043;1101;64303;-87
2021/06/02 02:33:43;;;;;;;14.80;12.73;;;;;;;8.06;72.03;99310.94;125043;1101;64406;-86
2021/06/02 02:36:34;;;;;;;20.20;14.90;;;;;;;8.00;71.92;99317.39;125179;1096;64280;-86
2021/06/02 02:39:21;;;;;;;18.47;14.30;;;;;;;7.94;72.04;99317.72;124980;1096;64253;-86
2021/06/02 02:42:19;;;;;;;16.97;13.30;;;;;;;7.88;72.40;99318.89;125051;1101;64454;-86
2021/06/02 02:45:03;;;;;;;17.40;13.73;;;;;;;7.86;72.30;99320.76;125154;1096;64469;-86
2021/06/02 02:48:09;;;;;;;14.80;13.17;;;;;;;7.88;72.42;99318.04;125122;1101;64853;-86
2021/06/02 02:51:10;;;;;;;18.33;13.13;;;;;;;7.89;72.63;99325.91;125097;1101;64249;-87
2021/06/02 02:53:49;;;;;;;18.03;14.33;;;;;;;7.89;72.53;99327.70;125117;1096;64358;-86
2021/06/02 02:56:57;;;;;;;16.57;13.43;;;;;;;7.94;72.58;99330.13;125034;1101;64333;-86
2021/06/02 02:59:44;;;;;;;19.53;14.33;;;;;;;7.97;72.55;99327.32;125185;1101;64326;-87
2021/06/02 03:02:29;;;;;;;18.47;14.63;;;;;;;8.00;72.60;99321.85;125146;1101;64467;-86
2021/06/02 03:05:00;;;;;;;21.00;16.80;;;;;;;8.00;72.42;99322.70;125190;1101;64384;-87
2021/06/02 03:07:34;;;;;;;22.83;16.57;;;;;;;8.07;72.74;99326.77;125468;1096;64271;-84
2021/06/02 03:10:12;;;;;;;16.67;13.87;;;;;;;8.17;72.65;99331.62;125131;1101;64283;-85
2021/06/02 03:13:01;;;;;;;17.27;13.80;;;;;;;8.20;72.62;99339.42;125108;1096;64293;-86
2021/06/02 03:15:43;;;;;;;20.90;14.70;;;;;;;8.23;72.77;99332.14;125256;1101;64435;-87
2021/06/02 03:18:16;;;;;;;17.73;14.40;;;;;;;8.31;72.78;99335.25;125079;1101;64331;-86
2021/06/02 03:21:09;;;;;;;20.30;15.10;;;;;;;8.42;72.64;99333.87;125206;1096;64285;-85
2021/06/02 03:23:54;;;;;;;18.40;14.87;;;;;;;9.53;71.70;99333.98;125246;1096;64202;-90
2021/06/02 03:26:28;;;;;;;21.10;13.73;;;;;;;10.85;70.03;99334.98;125279;1096;64309;-86
2021/06/02 03:29:27;;;;;;;21.93;14.07;;;;;;;11.88;68.47;99332.84;125126;1101;64499;-86
2021/06/02 03:32:05;;;;;;;15.13;13.70;;;;;;;13.03;66.78;99331.05;124801;1095;64393;-84
2021/06/02 03:34:32;;;;;;;15.57;13.93;;;;;;;13.94;65.19;99329.80;125085;1101;64320;-84
2021/06/02 03:37:47;;;;;;;15.43;13.83;;;;;;;14.68;63.68;99328.55;125150;1101;64332;-85
2021/06/02 03:40:40;;;;;;;15.03;13.33;;;;;;;15.64;61.63;99320.88;125039;1101;64333;-85
2021/06/02 03:43:23;;;;;;;16.13;14.10;;;;;;;16.43;60.37;99326.80;125072;1101;64426;-85
2021/06/02 03:46:28;;;;;;;14.57;13.10;;;;;;;17.09;58.85;99323.77;125096;1097;64402;-85
2021/06/02 03:49:10;;;;;;;14.00;12.55;;;;;;;17.65;57.53;99327.73;124992;1096;64377;-84
2021/06/02 03:51:45;;;;;;;13.23;11.93;;;;;;;18.11;56.26;99334.30;125024;1101;64336;-86
2021/06/02 03:54:34;;;;;;;14.50;12.57;;;;;;;18.45;54.38;99331.16;124895;1101;64367;-84
2021/06/02 03:57:27;;;;;;;14.63;12.77;;;;;;;18.91;53.36;99333.06;125003;1097;64278;-85
2021/06/02 04:00:18;;;;;;;14.43;12.33;;;;;;;19.15;52.50;99337.94;124984;1097;64320;-85
2021/06/02 04:03:02;;;;;;;13.43;12.13;;;;;;;18.68;52.01;99337.92;125021;1097;64361;-85
2021/06/02 04:06:02;;;;;;;13.47;12.03;;;;;;;18.42;51.13;99338.53;125044;1097;64360;-84
2021/06/02 04:08:58;;;;;;;12.77;11.50;;;;;;;18.40;50.69;99326.18;124952;1097;64384;-84
2021/06/02 04:12:02;;;;;;;13.90;12.50;;;;;;;19.14;50.81;99336.25;124941;1101;64429;-85
2021/06/02 04:14:35;;;;;;;12.87;11.40;;;;;;;18.69;50.43;99339.61;125006;1096;64335;-85
2021/06/02 04:17:04;;;;;;;12.60;10.90;;;;;;;17.96;50.65;99336.59;124926;1096;64300;-86
2021/06/02 04:19:32;;;;;;;14.15;10.65;;;;;;;18.09;50.34;99333.59;125079;1101;64326;-83
2021/06/02 04:22:06;;;;;;;11.43;9.97;;;;;;;18.72;49.55;99350.15;124973;1101;64342;-84
2021/06/02 04:24:35;;;;;;;11.40;10.20;;;;;;;19.29;48.50;99347.39;125045;1097;64502;-84
2021/06/02 04:27:04;;;;;;;11.53;10.43;;;;;;;19.80;48.04;99337.89;124988;1101;64410;-84
2021/06/02 04:29:32;;;;;;;12.65;10.85;;;;;;;20.06;47.45;99337.95;125070;1101;64275;-85
2021/06/02 04:32:05;;;;;;;10.30;9.40;;;;;;;20.59;46.49;99347.91;125032;1101;64336;-84
2021/06/02 04:34:34;;;;;;;10.10;9.10;;;;;;;20.36;46.80;99343.98;124983;1101;64324;-84
2021/06/02 04:37:04;;;;;;;10.47;9.47;;;;;;;20.44;46.61;99352.16;125172;1101;64806;-84
2021/06/02 04:39:33;;;;;;;11.45;9.60;;;;;;;20.71;45.44;99361.19;125172;1097;64300;-84
2021/06/02 04:42:02;;;;;;;10.67;9.67;;;;;;;21.14;44.95;99356.70;125011;1101;64248;-84
2021/06/02 04:44:31;;;;;;;10.78;9.78;;;;;;;21.45;44.21;99365.17;124976;1101;64356;-83
2021/06/02 04:47:00;;;;;;;10.13;9.07;;;;;;;21.67;43.59;99361.88;124992;1101;64338;-83
2021/06/02 04:50:05;;;;;;;10.20;9.30;;;;;;;21.58;43.45;99364.72;124906;1095;64361;-85
2021/06/02 04:52:32;;;;;;;11.30;9.67;;;;;;;21.30;43.16;99361.34;124965;1101;64329;-84
2021/06/02 04:55:24;;;;;;;10.50;9.50;;;;;;;21.56;42.82;99366.74;124921;1101;64422;-84
2021/06/02 04:58:15;;;;;;;10.33;9.07;;;;;;;21.89;42.23;99363.11;124950;1101;64296;-85
2021/06/02 05:01:31;;;;;;;11.50;10.08;;;;;;;22.19;41.98;99365.39;124907;1102;64288;-83
2021/06/02 05:04:01;;;;;;;10.67;9.67;;;;;;;22.27;41.37;99363.52;124979;1101;64285;-85
2021/06/02 05:06:50;;;;;;;10.57;9.50;;;;;;;22.44;40.34;99367.11;124954;1101;64351;-85
2021/06/02 05:09:50;;;;;;;10.33;9.30;;;;;;;22.62;40.28;99366.06;124929;1101;64326;-86
2021/06/02 05:12:49;;;;;;;9.73;8.83;;;;;;;22.75;39.95;99364.55;124891;1101;64336;-84
2021/06/02 05:15:35;;;;;;;9.65;7.30;;;;;;;22.79;38.91;99365.05;124820;1101;64326;-83
2021/06/02 05:18:35;;;;;;;8.37;7.60;;;;;;;22.71;39.05;99378.64;124957;1101;64326;-83
2021/06/02 05:24:55;;;;;;;8.70;7.80;;;;;;;22.92;38.88;99375.39;124917;1096;64336;-84
2021/06/02 05:28:04;;;;;;;10.90;7.70;;;;;;;22.95;38.01;99381.31;124916;1101;64334;-84
2021/06/02 05:31:08;;;;;;;7.65;6.93;;;;;;;22.97;37.58;99383.91;124586;1105;64448;-84
2021/06/02 05:34:12;;;;;;;7.40;6.70;;;;;;;22.99;37.80;99388.15;124873;1104;64474;-88
2021/06/02 05:37:02;;;;;;;8.60;7.80;;;;;;;23.19;38.11;99390.47;124945;1101;64664;-86
2021/06/02 05:39:54;;;;;;;;;;;;;;;23.52;37.94;99387.66;125179;1101;64332;-85
2021/06/02 05:42:59;;;;;;;8.10;7.27;;;;;;;23.76;37.89;99389.45;125000;1101;64355;-85
2021/06/02 05:45:54;;;;;;;8.53;6.97;;;;;;;23.96;37.35;99396.15;125095;1097;64307;-85
2021/06/02 05:48:36;;;;;;;7.73;7.03;;;;;;;23.70;37.29;99390.98;124993;1101;64481;-85
2021/06/02 05:51:25;;;;;;;8.75;7.75;;;;;;;23.52;37.82;99395.82;124886;1097;64279;-85
2021/06/02 05:54:11;;;;;;;7.00;6.40;;;;;;;23.60;36.93;99406.66;124999;1097;64329;-85
2021/06/02 05:57:34;;;;;;;8.23;6.37;;;;;;;23.57;36.39;99399.70;125059;1101;64322;-85
2021/06/02 06:00:29;;;;;;;7.07;6.37;;;;;;;23.48;36.22;99408.91;124570;1100;64494;-85
2021/06/02 06:03:24;;;;;;;6.50;5.90;;;;;;;23.34;35.70;99407.77;125059;1101;64493;-86
2021/06/02 06:05:57;;;;;;;7.33;6.40;;;;;;;23.21;35.45;99407.47;124959;1096;64342;-86
2021/06/02 06:08:43;;;;;;;6.60;6.00;;;;;;;23.23;35.28;99408.15;124972;1101;64352;-86
2021/06/02 06:11:29;;;;;;;7.53;6.77;;;;;;;23.06;35.07;99407.32;125090;1101;64450;-84
2021/06/02 06:14:34;;;;;;;7.97;6.13;;;;;;;23.02;35.65;99413.30;125009;1095;64354;-84
2021/06/02 06:17:14;;;;;;;6.90;6.20;;;;;;;23.02;35.61;99407.86;124929;1101;64469;-85
2021/06/02 06:20:00;;;;;;;6.43;5.80;;;;;;;22.97;35.38;99409.22;125098;1096;64421;-85
2021/06/02 06:22:52;;;;;;;8.83;5.80;;;;;;;22.91;35.69;99411.75;124946;1101;64349;-87
2021/06/02 06:25:33;;;;;;;8.43;6.10;;;;;;;23.02;36.35;99403.27;125059;1101;64249;-86
2021/06/02 06:28:29;;;;;;;8.63;6.97;;;;;;;23.26;35.63;99406.95;125121;1101;64346;-86
2021/06/02 06:30:58;;;;;;;9.45;6.75;;;;;;;23.18;34.96;99410.54;125148;1095;64360;-85
2021/06/02 06:33:27;;;;;;;10.10;7.05;;;;;;;22.97;35.13;99419.25;125206;1101;64300;-85
2021/06/02 06:35:57;;;;;;;8.97;5.97;;;;;;;22.70;35.04;99415.84;125082;1096;64326;-85
2021/06/02 06:38:45;;;;;;;8.45;5.80;;;;;;;22.51;35.34;99416.16;125043;1101;64488;-85
2021/06/02 06:41:16;;;;;;;7.37;5.90;;;;;;;22.42;35.50;99409.88;125061;1096;64401;-86
2021/06/02 06:43:45;;;;;;;9.57;6.27;;;;;;;22.34;35.62;99416.16;125033;1101;64339;-86
2021/06/02 06:46:14;;;;;;;;;;;;;;;22.35;36.16;99406.13;125036;1101;64254;-86
2021/06/02 06:48:47;;;;;;;5.95;5.35;;;;;;;22.47;36.44;99415.66;125201;1101;64419;-85
2021/06/02 06:51:18;;;;;;;12.17;7.53;;;;;;;22.61;36.72;99408.70;125094;1101;64300;-86
2021/06/02 06:53:49;;;;;;;8.43;5.73;;;;;;;22.65;36.31;99403.79;124946;1095;64396;-85
2021/06/02 06:56:18;;;;;;;9.07;5.20;;;;;;;22.74;36.58;99406.31;125075;1101;64416;-86
2021/06/02 06:58:47;;;;;;;7.60;6.10;;;;;;;22.76;35.76;99408.88;125114;1101;64367;-85
2021/06/02 07:01:15;;;;;;;7.03;6.37;;;;;;;22.64;36.50;99415.66;125010;1101;64265;-85
2021/06/02 07:03:45;;;;;;;6.17;5.63;;;;;;;22.60;35.86;99414.31;125179;1095;64658;-85
2021/06/02 07:06:13;;;;;;;6.43;5.33;;;;;;;22.43;35.94;99411.56;125191;1101;64348;-85
2021/06/02 07:08:45;;;;;;;7.20;5.43;;;;;;;22.39;36.27;99410.22;125112;1101;64345;-85
2021/06/02 07:11:16;;;;;;;7.27;5.90;;;;;;;22.37;36.19;99411.41;125147;1095;64380;-85
2021/06/02 07:13:47;;;;;;;6.57;5.67;;;;;;;22.26;36.19;99418.86;124994;1101;64246;-86
2021/06/02 07:16:47;;;;;;;7.23;5.50;;;;;;;22.09;36.35;99408.94;125345;1101;64332;-88
2021/06/02 07:19:17;;;;;;;6.97;5.23;;;;;;;21.86;36.98;99423.15;125328;1096;64333;-88
2021/06/02 07:21:46;;;;;;;5.38;4.88;;;;;;;21.87;36.75;99421.28;125307;1101;64274;-88
2021/06/02 07:24:18;;;;;;;6.00;5.00;;;;;;;21.75;36.68;99417.16;125454;1101;64795;-89
2021/06/02 07:26:46;;;;;;;5.20;4.53;;;;;;;21.32;36.67;99422.53;125425;1101;64342;-88
2021/06/02 07:29:14;;;;;;;6.47;4.77;;;;;;;20.98;37.71;99419.78;125270;1097;64307;-89
2021/06/02 07:31:41;;;;;;;4.80;4.13;;;;;;;20.79;38.29;99426.25;125200;1096;64416;-88
2021/06/02 07:34:09;;;;;;;6.13;4.63;;;;;;;20.69;38.94;99423.63;125227;1096;64351;-89
2021/06/02 07:36:37;;;;;;;6.97;4.67;;;;;;;20.45;37.38;99423.40;125300;1096;64332;-88
2021/06/02 07:39:06;;;;;;;6.23;5.03;;;;;;;20.08;38.54;99418.98;125640;1096;64207;-89
2021/06/02 07:41:33;;;;;;;7.23;5.33;;;;;;;19.95;39.15;99438.28;126127;1095;64680;-86
2021/06/02 07:44:00;;;;;;;6.13;3.80;;;;;;;19.88;37.75;99432.64;125862;1101;64355;-87
2021/06/02 07:46:28;;;;;;;9.00;5.00;;;;;;;19.86;39.19;99429.23;125919;1096;64355;-89
2021/06/02 07:48:55;;;;;;;6.35;4.00;;;;;;;19.91;39.10;99435.04;126085;1101;64272;-89
2021/06/02 07:51:23;;;;;;;5.95;3.75;;;;;;;19.97;38.90;99432.73;126062;1096;64417;-88
2021/06/02 07:53:50;;;;;;;4.63;3.70;;;;;;;20.11;39.41;99427.63;125827;1101;64249;-87
2021/06/02 07:56:17;;;;;;;6.55;3.60;;;;;;;20.20;39.16;99433.16;125922;1096;64837;-89
2021/06/02 07:58:45;;;;;;;5.80;3.57;;;;;;;20.22;38.79;99432.00;125884;1101;64329;-88
2021/06/02 08:01:12;;;;;;;3.90;2.63;;;;;;;20.24;37.33;99431.83;125363;1096;64355;-88
2021/06/02 08:03:40;;;;;;;3.20;2.93;;;;;;;20.05;37.09;99446.34;125306;1101;64342;-89
2021/06/02 08:06:07;;;;;;;3.37;3.00;;;;;;;19.98;37.33;99434.42;125294;1096;64438;-89
2021/06/02 08:08:34;;;;;;;4.00;3.00;;;;;;;19.94;36.49;99444.70;125427;1101;64409;-88
2021/06/02 08:11:02;;;;;;;3.70;3.30;;;;;;;19.94;36.79;99437.44;125323;1101;64362;-87
2021/06/02 08:13:30;;;;;;;4.83;2.80;;;;;;;19.95;36.67;99455.36;125284;1096;64377;-87
2021/06/02 08:15:59;;;;;;;3.93;2.53;;;;;;;20.04;36.32;99447.36;125327;1097;64336;-87
2021/06/02 08:18:26;;;;;;;3.07;2.60;;;;;;;19.99;36.50;99453.22;125216;1101;64415;-89
2021/06/02 08:20:56;;;;;;;5.13;2.40;;;;;;;20.08;36.52;99440.63;125095;1097;64417;-88
2021/06/02 08:23:23;;;;;;;5.27;3.00;;;;;;;20.21;36.98;99437.55;125227;1101;64288;-89
2021/06/02 08:25:50;;;;;;;4.63;2.80;;;;;;;20.37;35.83;99435.84;125254;1101;64221;-87
2021/06/02 08:28:20;;;;;;;4.93;2.70;;;;;;;20.45;36.52;99448.61;125355;1101;64333;-88
2021/06/02 08:30:48;;;;;;;2.53;2.30;;;;;;;20.44;34.72;99432.53;125067;1096;64422;-88
2021/06/02 08:33:15;;;;;;;3.47;2.30;;;;;;;20.33;34.67;99429.05;125222;1101;64459;-87
2021/06/02 08:35:44;;;;;;;4.10;1.83;;;;;;;20.22;31.66;99440.12;125404;1101;64243;-87
2021/06/02 08:38:11;;;;;;;2.67;2.10;;;;;;;20.08;32.94;99437.92;126372;1101;64331;-88
2021/06/02 08:40:39;;;;;;;2.10;1.50;;;;;;;20.17;30.98;99443.27;126140;1101;64323;-87
2021/06/02 08:43:06;;;;;;;3.53;1.47;;;;;;;20.21;31.54;99449.22;126075;1097;64326;-88
2021/06/02 08:45:33;;;;;;;3.23;1.60;;;;;;;20.20;30.16;99443.98;125794;1095;64345;-87
2021/06/02 08:48:01;;;;;;;4.07;1.63;;;;;;;20.27;31.29;99439.63;125869;1101;64332;-89
2021/06/02 08:50:30;;;;;;;2.17;1.87;;;;;;;20.32;30.04;99435.45;125817;1101;64331;-88
2021/06/02 08:53:00;;;;;;;4.60;1.70;;;;;;;20.37;30.63;99440.41;125809;1097;64291;-85
2021/06/02 08:55:28;;;;;;;4.43;1.67;;;;;;;20.56;31.11;99443.02;126138;1101;64185;-87
2021/06/02 08:57:56;;;;;;;1.80;1.70;;;;;;;20.77;31.28;99439.97;125795;1101;64418;-88
2021/06/02 09:00:27;;;;;;;4.37;1.70;;;;;;;20.91;31.14;99438.55;125843;1096;64205;-86
2021/06/02 09:02:55;;;;;;;2.93;1.97;;;;;;;21.02;31.38;99445.56;126213;1095;63177;-87
2021/06/02 09:05:25;;;;;;;1.80;1.70;;;;;;;21.11;30.75;99443.75;125661;1097;64355;-87
2021/06/02 09:07:55;;;;;;;2.00;1.80;;;;;;;21.07;30.49;99437.81;125426;1101;64239;-86
2021/06/02 09:10:24;;;;;;;2.40;1.60;;;;;;;20.89;29.19;99447.84;125520;1101;64352;-86
2021/06/02 09:12:56;;;;;;;3.77;1.90;;;;;;;20.70;29.35;99446.17;125451;1101;64355;-86
2021/06/02 09:15:25;;;;;;;2.63;1.90;;;;;;;20.50;29.56;99448.99;124971;1096;64355;-87
2021/06/02 09:17:59;;;;;;;2.43;2.03;;;;;;;20.48;30.78;99440.17;125164;1101;64326;-87
2021/06/02 09:20:34;;;;;;;2.37;1.70;;;;;;;20.66;31.21;99442.06;125196;1101;64361;-87
2021/06/02 09:23:02;;;;;;;6.37;2.17;;;;;;;20.66;30.46;99440.20;125154;1101;64326;-87
2021/06/02 09:25:29;;;;;;;5.00;2.33;;;;;;;20.43;30.96;99447.91;125061;1096;64355;-86
2021/06/02 09:27:57;;;;;;;2.60;2.10;;;;;;;20.30;30.73;99450.14;125188;1101;64371;-88
2021/06/02 09:30:38;;;;;;;3.40;2.15;;;;;;;20.45;31.97;99447.77;124943;1102;64428;-88
2021/06/02 09:33:08;;;;;;;4.43;1.87;;;;;;;20.71;31.38;99450.57;124870;1095;64277;-87
2021/06/02 09:35:39;;;;;;;;;;;;;;;20.81;31.57;99437.79;125178;1100;64275;-87
2021/06/02 09:38:23;;;;;;;4.33;2.70;;;;;;;20.87;32.48;99442.56;125067;1101;64397;-87
2021/06/02 09:40:56;;;;;;;5.35;2.70;;;;;;;21.07;32.07;99456.78;125131;1096;64387;-87
2021/06/02 09:43:31;;;;;;;4.07;2.43;;;;;;;21.18;32.08;99433.98;125060;1101;64264;-86
2021/06/02 09:46:09;;;;;;;4.23;2.40;;;;;;;21.25;32.40;99444.03;125160;1096;64256;-86
2021/06/02 09:48:48;;;;;;;5.27;2.80;;;;;;;21.10;31.35;99451.04;125095;1097;64278;-86
2021/06/02 09:51:39;;;;;;;5.05;2.23;;;;;;;21.02;31.76;99438.28;125161;1101;64429;-86
2021/06/02 09:54:09;;;;;;;3.70;2.37;;;;;;;20.91;30.60;99433.13;125141;1101;64333;-87
2021/06/02 09:56:44;;;;;;;6.85;2.83;;;;;;;20.74;31.14;99442.97;125124;1095;64767;-87
2021/06/02 09:59:13;;;;;;;4.20;2.43;;;;;;;20.77;32.70;99434.55;125141;1101;64326;-87
2021/06/02 10:02:01;;;;;;;5.07;2.57;;;;;;;20.93;32.91;99444.66;125180;1096;64250;-86
2021/06/02 10:04:34;;;;;;;4.73;3.20;;;;;;;21.03;33.18;99436.41;125164;1101;64354;-86
2021/06/02 10:07:03;;;;;;;2.77;2.30;;;;;;;21.10;32.22;99428.52;125196;1101;64364;-86
2021/06/02 10:09:37;;;;;;;8.70;2.57;;;;;;;21.17;32.46;99432.27;125201;1097;64742;-87
2021/06/02 10:12:13;;;;;;;6.00;2.40;;;;;;;21.11;32.21;99431.05;125167;1101;64272;-88
2021/06/02 10:14:52;;;;;;;2.60;2.40;;;;;;;21.11;32.16;99436.47;125069;1101;64336;-87
2021/06/02 10:17:32;;;;;;;5.13;2.88;;;;;;;21.08;32.76;99438.66;125051;1101;64309;-86
2021/06/02 10:20:13;;;;;;;3.95;2.80;;;;;;;21.07;32.78;99426.13;125201;1101;64313;-87
2021/06/02 10:22:42;;;;;;;3.90;2.30;;;;;;;21.13;33.09;99439.03;125560;1101;64725;-87
2021/06/02 10:25:11;;;;;;;6.30;2.50;;;;;;;21.28;32.51;99437.44;125346;1101;64248;-88
2021/06/02 10:27:38;;;;;;;5.77;2.93;;;;;;;21.38;33.22;99432.78;125015;1101;64321;-88
2021/06/02 10:30:08;;;;;;;2.33;2.03;;;;;;;21.39;31.52;99437.18;125180;1097;64288;-88
2021/06/02 10:32:35;;;;;;;4.73;1.90;;;;;;;21.34;32.30;99428.64;124861;1103;64422;-87
2021/06/02 10:35:03;;;;;;;3.70;2.90;;;;;;;21.38;32.59;99431.91;124992;1102;64320;-87
2021/06/02 10:37:34;;;;;;;3.77;2.17;;;;;;;21.36;31.29;99447.48;125073;1095;64446;-86
2021/06/02 10:40:06;;;;;;;2.30;1.93;;;;;;;21.12;31.75;99437.34;125131;1101;64475;-87
2021/06/02 10:42:36;;;;;;;4.80;2.07;;;;;;;21.13;32.43;99439.03;125355;1101;64502;-87
2021/06/02 10:45:29;;;;;;;2.93;1.97;;;;;;;21.07;31.36;99436.97;125175;1101;64259;-87
2021/06/02 10:47:59;;;;;;;3.10;1.77;;;;;;;21.02;30.99;99424.73;124883;1101;64416;-86
2021/06/02 10:50:35;;;;;;;2.87;1.90;;;;;;;20.97;31.01;99429.77;124936;1101;64267;-86
2021/06/02 10:53:24;;;;;;;2.10;1.97;;;;;;;20.98;31.43;99415.20;125116;1096;64333;-87
2021/06/02 10:55:53;;;;;;;2.10;2.00;;;;;;;21.05;30.50;99431.69;125122;1101;64326;-86
2021/06/02 10:58:31;;;;;;;1.70;1.60;;;;;;;20.97;31.18;99439.77;125152;1096;64325;-86
2021/06/02 11:01:11;;;;;;;2.57;2.03;;;;;;;21.11;31.87;99430.20;125171;1101;64250;-86
2021/06/02 11:03:42;;;;;;;3.60;1.78;;;;;;;21.23;31.12;99424.35;125293;1096;64431;-88
2021/06/02 11:06:15;;;;;;;3.37;2.00;;;;;;;21.09;30.39;99427.67;125143;1101;64411;-85
2021/06/02 11:08:52;;;;;;;2.97;2.20;;;;;;;21.05;31.79;99421.70;125138;1096;64320;-86
2021/06/02 11:11:27;;;;;;;2.57;2.00;;;;;;;21.10;30.74;99428.52;125166;1101;64698;-86
2021/06/02 11:14:13;;;;;;;4.07;2.13;;;;;;;21.09;31.01;99416.83;124959;1096;64333;-87
2021/06/02 11:16:44;;;;;;;2.80;2.07;;;;;;;21.12;31.65;99421.92;125119;1096;64323;-86
2021/06/02 11:19:21;;;;;;;3.47;2.27;;;;;;;21.18;31.09;99420.43;125103;1103;64847;-87
2021/06/02 11:21:55;;;;;;;3.67;2.47;;;;;;;21.17;31.48;99422.30;125479;1096;64323;-86
2021/06/02 11:24:35;;;;;;;2.07;1.87;;;;;;;21.12;30.70;99412.95;125218;1096;64330;-88
2021/06/02 11:27:11;;;;;;;4.03;2.23;;;;;;;20.99;30.32;99418.79;125338;1101;64428;-87
2021/06/02 11:29:44;;;;;;;2.67;2.47;;;;;;;20.94;31.33;99421.97;125193;1101;64335;-87
2021/06/02 11:32:20;;;;;;;3.10;2.20;;;;;;;21.05;30.77;99423.56;125295;1096;64252;-86
2021/06/02 11:34:58;;;;;;;2.73;2.10;;;;;;;21.05;30.81;99418.14;125094;1096;64333;-86
2021/06/02 11:37:28;;;;;;;7.00;2.50;;;;;;;21.09;30.74;99416.83;125218;1095;64323;-86
2021/06/02 11:39:58;;;;;;;4.03;2.63;;;;;;;21.09;31.12;99419.54;125370;1096;64450;-89
2021/06/02 11:42:47;;;;;;;4.20;2.50;;;;;;;21.15;31.82;99423.47;125275;1095;64355;-88
2021/06/02 11:45:20;;;;;;;3.23;2.33;;;;;;;21.15;31.53;99415.33;125337;1096;64425;-86
2021/06/02 11:47:55;;;;;;;2.77;2.57;;;;;;;21.15;31.89;99420.75;125390;1096;64355;-87
2021/06/02 11:50:25;;;;;;;5.07;2.27;;;;;;;21.17;30.84;99426.84;125412;1095;64352;-88
2021/06/02 11:53:03;;;;;;;4.50;2.43;;;;;;;21.17;31.08;99414.16;125362;1101;64333;-86
2021/06/02 11:55:32;;;;;;;4.43;2.63;;;;;;;21.17;31.44;99422.30;125437;1101;64279;-86
2021/06/02 11:58:01;;;;;;;3.57;2.60;;;;;;;21.26;32.51;99428.61;125408;1101;64250;-87
2021/06/02 12:00:35;;;;;;;3.00;2.37;;;;;;;21.39;30.57;99425.49;125341;1101;64355;-86
2021/06/02 12:03:10;;;;;;;6.03;2.40;;;;;;;21.29;30.75;99424.72;125300;1101;64275;-87
2021/06/02 12:05:42;;;;;;;3.87;2.87;;;;;;;21.31;31.94;99425.42;125222;1096;64326;-87
2021/06/02 12:08:12;;;;;;;3.33;2.20;;;;;;;21.47;31.75;99423.66;125191;1096;64330;-86
2021/06/02 12:10:48;;;;;;;5.43;2.67;;;;;;;21.49;31.39;99418.09;125270;1096;64486;-86
2021/06/02 12:13:24;;;;;;;4.20;2.55;;;;;;;21.47;30.71;99420.95;125032;1096;64327;-87